Flight Track Log - Related Links

Times and Time Zones

All times are in EDT time to prevent confusion due to time zone crossing. See the SWA419 flight status page for this flight to view local times or setup timezone preferences in your user account.

Time Position Orientation Groundspeed Altitude Reporting Facility
EDT Latitude Longitude Course Direction KTS MPH feet Rate Location/Type
Thu 07:58:07 PM 29.5664 -98.4308 36° Northeast 154 177 2,700  Level Houston Center
Thu 07:58:30 PM 29.5833 -98.4158 38° Northeast 200 230 3,600 2,710 Climbing Houston Center
Thu 07:59:09 PM 29.6183 -98.3894 33° Northeast 212 244 5,500 2,647 Climbing Houston Center
Thu 08:00:12 PM 29.6803 -98.3608 22° Northeast 265 305 8,100 2,710 Climbing Houston Center
Thu 08:01:13 PM 29.7731 -98.3681 356° North 311 358 11,100 3,073 Climbing Houston Center
Thu 08:02:15 PM 29.8728 -98.3756 356° North 358 412 14,400 3,145 Climbing Houston Center
Thu 08:03:17 PM 29.9839 -98.3836 356° North 370 426 17,600 2,903 Climbing Houston Center
Thu 08:04:19 PM 30.0917 -98.3928 356° North 383 441 20,400 2,565 Climbing Houston Center
Thu 08:05:21 PM 30.1922 -98.4442 336° Northwest 424 488 22,900 2,585 Climbing Houston Center
Thu 08:06:22 PM 30.2994 -98.5089 332° Northwest 393 452 25,700 2,341 Climbing Houston Center
Thu 08:07:24 PM 30.4000 -98.5700 332° Northwest 417 480 27,700 1,790 Climbing Houston Center
Thu 08:08:26 PM 30.5067 -98.6361 332° Northwest 428 493 29,400 1,742 Climbing Houston Center
Thu 08:09:28 PM 30.6194 -98.7036 333° Northwest 447 514 31,300 2,032 Climbing Houston Center
Thu 08:10:30 PM 30.7283 -98.7703 332° Northwest 440 506 33,600 2,129 Climbing Houston Center
Thu 08:11:32 PM 30.8325 -98.8333 333° Northwest 422 486 35,700 1,742 Climbing Houston Center
Thu 08:12:34 PM 30.9364 -98.8975 332° Northwest 416 479 37,200 1,113 Climbing Houston Center
Thu 08:13:36 PM 31.0553 -98.9711 332° Northwest 412 474 38,000 387 Climbing Houston Center
Thu 08:14:38 PM 31.1581 -99.0350 332° Northwest 412 474 38,000  Level Houston Center
Thu 08:15:40 PM 31.2628 -99.0986 333° Northwest 417 480 38,000  Level Houston Center
Thu 08:16:42 PM 31.3667 -99.1622 332° Northwest 416 479 38,000  Level Houston Center
Thu 08:17:44 PM 31.4689 -99.2269 332° Northwest 413 475 38,000  Level Houston Center
Thu 08:18:46 PM 31.5714 -99.2906 332° Northwest 413 475 38,000  Level Houston Center
Thu 08:19:48 PM 31.6769 -99.3531 333° Northwest 417 480 38,000  Level Houston Center
Thu 08:20:50 PM 31.7825 -99.4169 333° Northwest 427 491 38,000  Level Houston Center
Thu 08:21:52 PM 31.8858 -99.4822 332° Northwest 421 484 38,000  Level Houston Center
Thu 08:22:54 PM 32.0044 -99.5575 332° Northwest 415 478 38,000  Level Houston Center
Thu 08:23:54 PM 32.1000 -99.6231 330° Northwest 409 471 38,000  Level Fort Worth Center
Thu 08:24:54 PM 32.2011 -99.6869 332° Northwest 409 471 38,000  Level Fort Worth Center
Thu 08:25:54 PM 32.3000 -99.7483 332° Northwest 414 476 38,000  Level Fort Worth Center
Thu 08:26:54 PM 32.3992 -99.8122 331° Northwest 414 476 38,000  Level Fort Worth Center
Thu 08:27:54 PM 32.4981 -99.8742 332° Northwest 409 471 38,000  Level Fort Worth Center
Thu 08:28:54 PM 32.5828 -99.9183 336° Northwest 409 471 38,000  Level Fort Worth Center
Thu 08:29:55 PM 32.7150 -99.9839 337° Northwest 409 471 38,000  Level Fort Worth Center
Thu 08:30:54 PM 32.8100 -100.0358 335° Northwest 422 486 38,000  Level Fort Worth Center
Thu 08:31:54 PM 32.9133 -100.0883 337° Northwest 412 474 38,000  Level Fort Worth Center
Thu 08:32:54 PM 33.0186 -100.1411 337° Northwest 412 474 38,000  Level Fort Worth Center
Thu 08:33:54 PM 33.1217 -100.1964 336° Northwest 412 474 38,000  Level Fort Worth Center
Thu 08:34:54 PM 33.2250 -100.2494 337° Northwest 412 474 38,000  Level Fort Worth Center
Thu 08:35:54 PM 33.3303 -100.3025 337° Northwest 412 474 38,000  Level Fort Worth Center
Thu 08:36:55 PM 33.4333 -100.3606 335° Northwest 412 474 38,000  Level Fort Worth Center
Thu 08:37:54 PM 33.5383 -100.4139 337° Northwest 412 474 38,000  Level Fort Worth Center
Thu 08:38:54 PM 33.6433 -100.4700 336° Northwest 412 474 38,000  Level Fort Worth Center
Thu 08:39:54 PM 33.7486 -100.5236 337° Northwest 412 474 38,000  Level Fort Worth Center
Thu 08:40:54 PM 33.8536 -100.5797 336° Northwest 412 474 38,000  Level Fort Worth Center
Thu 08:43:02 PM 34.0806 -100.7000 336° Northwest 417 480 38,000  Level Albuquerque Center
Thu 08:44:04 PM 34.1850 -100.7564 336° Northwest 414 476 38,000  Level Albuquerque Center
Thu 08:45:06 PM 34.2908 -100.8125 336° Northwest 416 479 38,000  Level Albuquerque Center
Thu 08:46:07 PM 34.3967 -100.8703 336° Northwest 417 480 38,000  Level Albuquerque Center
Thu 08:47:09 PM 34.5236 -100.9389 336° Northwest 416 479 38,000  Level Albuquerque Center
Thu 08:48:11 PM 34.6289 -100.9964 336° Northwest 416 479 38,000  Level Albuquerque Center
Thu 08:49:13 PM 34.7356 -101.0519 337° Northwest 417 480 38,000  Level Albuquerque Center
Thu 08:50:14 PM 34.8408 -101.1097 336° Northwest 417 480 38,000  Level Albuquerque Center
Thu 08:51:16 PM 34.9439 -101.1667 336° Northwest 412 474 38,000  Level Albuquerque Center
Thu 08:52:18 PM 35.0469 -101.2233 336° Northwest 409 471 38,000  Level Albuquerque Center
Thu 08:53:19 PM 35.1717 -101.2928 336° Northwest 412 474 38,000  Level Albuquerque Center
Thu 08:54:21 PM 35.2617 -101.3425 336° Northwest 417 480 38,000  Level Albuquerque Center
Thu 08:55:23 PM 35.3697 -101.4014 336° Northwest 420 483 38,000  Level Albuquerque Center
Thu 08:56:24 PM 35.4956 -101.4758 334° Northwest 419 482 38,000  Level Albuquerque Center
Thu 08:57:26 PM 35.5828 -101.5319 332° Northwest 410 472 38,000  Level Albuquerque Center
Thu 08:58:28 PM 35.6831 -101.5967 332° Northwest 410 472 38,000  Level Albuquerque Center
Thu 08:59:31 PM 35.8058 -101.6731 333° Northwest 412 474 38,000  Level Albuquerque Center
Thu 09:00:32 PM 35.9083 -101.7378 333° Northwest 414 476 38,000  Level Albuquerque Center
Thu 09:01:34 PM 36.0117 -101.8019 333° Northwest 416 479 38,000  Level Albuquerque Center
Thu 09:02:36 PM 36.1139 -101.8694 332° Northwest 416 479 38,000  Level Albuquerque Center
Thu 09:03:37 PM 36.2156 -101.9328 333° Northwest 414 476 38,000  Level Albuquerque Center
Thu 09:04:39 PM 36.3369 -102.0106 333° Northwest 410 472 38,000  Level Albuquerque Center
Thu 09:05:41 PM 36.4381 -102.0753 333° Northwest 411 473 38,000  Level Albuquerque Center
Thu 09:06:42 PM 36.5394 -102.1397 333° Northwest 409 471 38,000  Level Albuquerque Center
Thu 09:07:44 PM 36.6428 -102.2069 332° Northwest 416 479 38,000  Level Albuquerque Center
Thu 09:08:46 PM 36.7467 -102.2725 333° Northwest 419 482 38,000  Level Albuquerque Center
Thu 09:09:47 PM 36.8511 -102.3419 332° Northwest 424 488 38,000  Level Albuquerque Center
Thu 09:10:49 PM 36.9606 -102.4131 333° Northwest 429 494 38,000  Level Albuquerque Center
Thu 09:11:50 PM 37.0756 -102.4875 333° Northwest 420 483 38,000  Level Albuquerque Center
Thu 09:12:52 PM 37.1858 -102.5594 333° Northwest 418 481 38,000  Level Albuquerque Center
Thu 09:13:54 PM 37.2836 -102.6250 332° Northwest 417 480 38,000  Level Albuquerque Center
Thu 09:14:55 PM 37.3725 -102.7036 325° Northwest 416 479 38,000  Level Albuquerque Center
Thu 09:15:39 PM 37.4119 -102.7747 305° West 399 459 38,000 -57 Level Denver Center
Thu 09:16:41 PM 37.4831 -102.9061 304° West 408 470 37,900 -629 Descending Denver Center
Thu 09:17:43 PM 37.5500 -103.0433 302° West 385 443 36,700 -1,016 Descending Denver Center
Thu 09:18:45 PM 37.5217 -103.1489 251° West 360 414 35,800 -968 Descending Denver Center
Thu 09:19:47 PM 37.4778 -103.2736 246° West 349 402 34,700 -871 Descending Denver Center
Thu 09:20:49 PM 37.4403 -103.3803 246° West 347 399 34,000 -339 Descending Denver Center
Thu 09:21:51 PM 37.3969 -103.5078 247° West 354 407 34,000  Level Denver Center
Thu 09:22:53 PM 37.3611 -103.6197 248° West 358 412 34,000 -484 Level Denver Center
Thu 09:23:55 PM 37.4017 -103.7444 292° West 372 428 33,000 -968 Descending Denver Center
Thu 09:24:57 PM 37.4900 -103.8114 329° Northwest 392 451 32,000 -878 Descending Denver Center
Thu 09:25:58 PM 37.5603 -103.8653 329° Northwest 380 437 31,200 -1,024 Descending Denver Center
Thu 09:27:00 PM 37.6783 -103.9556 329° Northwest 373 429 29,900 -1,161 Descending Denver Center
Thu 09:28:02 PM 37.7700 -104.0258 329° Northwest 374 430 28,800 -968 Descending Denver Center
Thu 09:29:04 PM 37.8547 -104.0903 329° Northwest 372 428 27,900 -968 Descending Denver Center
Thu 09:30:06 PM 37.9508 -104.1633 329° Northwest 363 418 26,800 -968 Descending Denver Center
Thu 09:31:08 PM 38.0375 -104.2278 330° Northwest 376 433 25,900 -871 Descending Denver Center
Thu 09:32:10 PM 38.1403 -104.2714 342° North 404 465 25,000 -968 Descending Denver Center
Thu 09:33:12 PM 38.2572 -104.3236 341° North 397 457 23,900 -1,016 Descending Denver Center
Thu 09:34:14 PM 38.3550 -104.3675 341° North 390 449 22,900 -1,016 Descending Denver Center
Thu 09:35:16 PM 38.4675 -104.4167 341° North 384 442 21,800 -1,065 Descending Denver Center
Thu 09:36:18 PM 38.5639 -104.4314 353° North 366 421 20,700 -1,645 Descending Denver Center
Thu 09:37:20 PM 38.6753 -104.4483 353° North 362 417 18,400 -1,935 Descending Denver Center
Thu 09:38:22 PM 38.7692 -104.4647 352° North 356 410 16,700 -1,839 Descending Denver Center
Thu 09:39:24 PM 38.8661 -104.4814 352° North 340 391 14,600 -1,694 Descending Denver Center
Thu 09:40:26 PM 38.9611 -104.4967 353° North 341 392 13,200 -1,258 Descending Denver Center
Thu 09:41:28 PM 39.0647 -104.5139 353° North 314 361 12,000 -864 Descending Denver Center
Thu 09:42:31 PM 39.1503 -104.5300 352° North 324 373 11,400 -480 Descending Denver Center
Thu 09:43:33 PM 39.2278 -104.5736 336° Northwest 303 349 11,000 -194 Descending Denver Center
Thu 09:44:35 PM 39.2944 -104.6122 336° Northwest 243 280 11,000 -387 Level Denver Center
Thu 09:45:37 PM 39.3522 -104.6442 337° Northwest 224 258 10,200 -484 Descending Denver Center
Thu 09:46:39 PM 39.4172 -104.6661 345° North 224 258 10,000 -97 Descending Denver Center
Thu 09:47:41 PM 39.4767 -104.6664 360° North 213 245 10,000  Level Denver Center
Thu 09:48:43 PM 39.5431 -104.6644 North 222 255 10,000 -97 Level Denver Center
Thu 09:49:45 PM 39.6067 -104.6631 North 230 265 9,800 -581 Descending Denver Center
Thu 09:50:47 PM 39.6678 -104.6628 360° North 220 253 8,800 -919 Descending Denver Center
Thu 09:51:49 PM 39.7275 -104.6628 360° North 198 228 7,900 -1,016 Descending Denver Center
Thu 09:52:51 PM 39.7700 -104.6619 North 158 182 6,700 -1,016 Descending Denver Center
Thu 09:53:53 PM 39.8108 -104.6614 North 139 160 5,800 -629 Descending Denver Center
Thu 09:54:55 PM 39.8467 -104.6608 North 129 148 5,400 -387 Descending Denver Center
Thu 09:56:00 PM 39.8500 -104.6667 North  Level FlightAware Approximate
Thu 10:03:00 PM 39.8617 -104.6732 North  Level Estimated
Thu 10:04:00 PM 39.8617 -104.6732 North  Level Estimated

Login

Don't have an account? Register now (free) for customized features, flight alerts, and more!